Time;durP1;ratioP1;P1;durP2;ratioP2;P2;SDS_P1;SDS_P2;PMS_P1;PMS_P2;Temp;Humidity;BMP_temperature;BMP_pressure;BME280_temperature;BME280_humidity;BME280_pressure;Samples;Min_cycle;Max_cycle;Signal;HPM_P1;HPM_P2
2022/07/04 00:00:20;;;;;;;13.45;12.30;;;;;;;19.46;100.00;99387.84;5091656;28;20054;-52
2022/07/04 00:02:47;;;;;;;13.15;12.05;;;;;;;19.48;100.00;99386.22;5092077;28;20094;-52
2022/07/04 00:05:15;;;;;;;14.55;13.20;;;;;;;19.51;100.00;99382.59;5091790;28;20110;-52
2022/07/04 00:07:42;;;;;;;13.50;12.13;;;;;;;19.53;100.00;99376.63;5091775;28;20048;-51
2022/07/04 00:10:10;;;;;;;13.70;12.30;;;;;;;19.52;100.00;99388.94;5091544;28;20080;-49
2022/07/04 00:12:37;;;;;;;16.38;12.90;;;;;;;19.43;100.00;99378.38;5091590;28;20423;-47
2022/07/04 00:15:05;;;;;;;14.43;10.48;;;;;;;19.41;100.00;99380.00;5090422;28;20089;-48
2022/07/04 00:17:32;;;;;;;12.77;11.52;;;;;;;19.41;100.00;99368.88;5091632;28;20102;-49
2022/07/04 00:19:59;;;;;;;12.38;11.38;;;;;;;19.51;100.00;99359.56;5091418;28;20048;-50
2022/07/04 00:22:26;;;;;;;11.88;10.93;;;;;;;19.55;100.00;99368.66;5091216;28;20056;-52
2022/07/04 00:24:52;;;;;;;14.80;13.30;;;;;;;19.55;100.00;99368.66;5091416;28;20075;-49
2022/07/04 00:27:18;;;;;;;11.73;10.32;;;;;;;19.49;100.00;99370.31;5091100;28;20055;-47
2022/07/04 00:29:45;;;;;;;13.48;12.18;;;;;;;19.47;100.00;99365.19;5091500;28;20059;-51
2022/07/04 00:32:11;;;;;;;15.25;13.85;;;;;;;19.55;100.00;99368.66;5091157;28;20044;-47
2022/07/04 00:34:37;;;;;;;11.82;10.25;;;;;;;19.47;100.00;99367.19;5091319;28;20051;-50
2022/07/04 00:37:05;;;;;;;15.27;13.93;;;;;;;19.48;100.00;99369.53;5091050;28;20461;-51
2022/07/04 00:39:31;;;;;;;13.98;12.75;;;;;;;19.44;100.00;99368.03;5091339;28;20053;-52
2022/07/04 00:41:58;;;;;;;13.68;12.50;;;;;;;19.41;100.00;99366.88;5090985;28;20120;-50
2022/07/04 00:44:24;;;;;;;12.20;11.13;;;;;;;19.48;100.00;99361.19;5090912;28;20056;-52
2022/07/04 00:46:50;;;;;;;11.48;10.27;;;;;;;19.60;100.00;99354.28;5090980;28;20487;-51
2022/07/04 00:49:18;;;;;;;13.43;12.23;;;;;;;19.54;100.00;99371.88;5090891;28;20062;-49
2022/07/04 00:51:45;;;;;;;13.77;12.48;;;;;;;19.41;100.00;99385.56;5091081;28;20131;-53
2022/07/04 00:54:14;;;;;;;13.07;11.98;;;;;;;19.38;100.00;99369.69;5090806;28;20058;-49
2022/07/04 00:56:42;;;;;;;13.88;12.73;;;;;;;19.38;100.00;99366.94;5091068;28;20052;-51
2022/07/04 00:59:10;;;;;;;22.55;12.32;;;;;;;19.46;100.00;99357.25;5090693;28;20056;-48
2022/07/04 01:01:36;;;;;;;14.68;13.27;;;;;;;19.50;100.00;99356.03;5090990;28;20052;-51
2022/07/04 01:04:03;;;;;;;13.70;12.40;;;;;;;19.54;100.00;99353.19;5090643;28;20052;-50
2022/07/04 01:06:31;;;;;;;13.30;12.07;;;;;;;19.51;100.00;99359.56;5090642;28;20147;-50
2022/07/04 01:08:57;;;;;;;13.93;12.52;;;;;;;19.58;100.00;99355.91;5090501;28;20064;-50
2022/07/04 01:11:24;;;;;;;13.55;12.30;;;;;;;19.50;100.00;99358.78;5090667;28;20048;-51
2022/07/04 01:13:50;;;;;;;14.15;12.88;;;;;;;19.59;100.00;99361.03;5090661;28;20130;-50
2022/07/04 01:16:17;;;;;;;14.77;12.50;;;;;;;19.64;100.00;99359.81;5090443;28;20272;-53
2022/07/04 01:18:43;;;;;;;13.48;12.38;;;;;;;19.61;100.00;99369.75;5090832;28;20522;-50
2022/07/04 01:21:10;;;;;;;13.13;11.95;;;;;;;19.56;100.00;99377.78;5090379;28;20083;-51
2022/07/04 01:23:38;;;;;;;13.00;11.85;;;;;;;19.44;100.00;99379.16;5090379;28;20135;-49
2022/07/04 01:26:05;;;;;;;13.57;12.38;;;;;;;19.44;100.00;99379.94;5090022;28;20048;-51
2022/07/04 01:28:32;;;;;;;13.52;12.23;;;;;;;19.38;100.00;99378.03;5090645;28;20062;-51
2022/07/04 01:30:58;;;;;;;13.52;12.32;;;;;;;19.43;100.00;99380.38;5090641;28;20048;-49
2022/07/04 01:33:24;;;;;;;13.52;12.10;;;;;;;19.38;100.00;99373.28;5090566;28;20052;-51
2022/07/04 01:35:50;;;;;;;15.68;13.65;;;;;;;19.45;100.00;99375.16;5090162;28;20144;-48
2022/07/04 01:38:17;;;;;;;13.55;12.35;;;;;;;19.41;100.00;99375.22;5090360;28;20063;-48
2022/07/04 01:40:44;;;;;;;13.27;12.00;;;;;;;19.46;100.00;99382.28;5090162;28;20063;-50
2022/07/04 01:43:10;;;;;;;12.60;11.60;;;;;;;19.44;100.00;99393.84;5090062;28;20559;-47
2022/07/04 01:45:37;;;;;;;14.80;12.60;;;;;;;19.37;100.00;99385.59;5090497;28;20056;-51
2022/07/04 01:48:05;;;;;;;12.30;11.25;;;;;;;19.39;100.00;99379.59;5090099;28;20403;-49
2022/07/04 01:50:31;;;;;;;15.05;13.43;;;;;;;19.40;100.00;99364.53;5089963;28;20573;-49
2022/07/04 01:52:57;;;;;;;13.82;12.52;;;;;;;19.42;100.00;99370.44;5089942;28;20087;-48
2022/07/04 01:55:24;;;;;;;12.85;11.45;;;;;;;19.40;100.00;99368.09;5090104;28;20097;-48
2022/07/04 01:57:51;;;;;;;16.50;13.52;;;;;;;19.34;100.00;99361.41;5089803;28;20482;-49
2022/07/04 02:03:01;;;;;;;14.25;12.35;;;;;;;19.52;100.00;99350.03;5058676;28;20083;-52
2022/07/04 02:05:27;;;;;;;14.80;13.38;;;;;;;19.50;100.00;99367.13;5089906;28;20056;-51
2022/07/04 02:07:54;;;;;;;14.70;13.40;;;;;;;19.52;100.00;99369.47;5089713;28;20129;-50
2022/07/04 02:10:20;;;;;;;14.55;13.15;;;;;;;19.59;100.00;99371.38;5089711;28;20078;-51
2022/07/04 02:13:02;;;;;;;18.58;12.48;;;;;;;19.65;100.00;99367.72;5089898;28;20068;-52
2022/07/04 02:15:29;;;;;;;14.02;12.82;;;;;;;19.63;100.00;99384.06;5089681;28;20048;-52
2022/07/04 02:17:56;;;;;;;15.18;13.73;;;;;;;19.66;100.00;99390.75;5089763;28;20056;-51
2022/07/04 02:20:22;;;;;;;14.98;13.48;;;;;;;19.69;100.00;99390.72;5089666;28;20558;-52
2022/07/04 02:22:49;;;;;;;15.15;13.77;;;;;;;19.69;100.00;99395.47;5090078;28;20162;-51
2022/07/04 02:25:15;;;;;;;16.02;14.55;;;;;;;19.85;100.00;99398.41;5089521;28;20048;-52
2022/07/04 02:27:41;;;;;;;14.63;13.15;;;;;;;19.97;100.00;99405.38;5089744;28;20051;-50
2022/07/04 02:30:09;;;;;;;14.65;13.45;;;;;;;20.14;100.00;99412.63;5089409;28;20052;-50
2022/07/04 02:32:35;;;;;;;16.35;12.73;;;;;;;20.08;100.00;99436.59;5089436;28;20054;-51
2022/07/04 02:35:02;;;;;;;15.93;14.43;;;;;;;20.35;100.00;99452.44;5089729;28;20047;-51
2022/07/04 02:37:28;;;;;;;12.77;11.38;;;;;;;20.42;100.00;99472.59;5089352;28;20124;-52
2022/07/04 02:39:54;;;;;;;13.77;12.48;;;;;;;20.49;100.00;99502.31;5093223;28;20048;-52
2022/07/04 02:42:21;;;;;;;14.25;12.80;;;;;;;20.74;100.00;99515.84;5092940;28;20260;-52
2022/07/04 02:44:47;;;;;;;14.23;12.77;;;;;;;21.17;100.00;99548.50;5093219;28;20495;-48
2022/07/04 02:47:14;;;;;;;12.40;11.30;;;;;;;21.45;100.00;99594.59;5092931;28;20051;-50
2022/07/04 02:49:41;;;;;;;11.88;10.82;;;;;;;21.75;100.00;99629.09;5093136;28;20143;-51
2022/07/04 02:52:07;;;;;;;12.65;11.55;;;;;;;22.12;100.00;99678.16;5092835;28;20080;-48
2022/07/04 02:54:34;;;;;;;11.45;10.45;;;;;;;22.19;100.00;99694.00;5092955;28;20111;-49
2022/07/04 02:57:00;;;;;;;12.73;11.50;;;;;;;22.43;100.00;99708.69;5092832;28;20524;-51
2022/07/04 02:59:26;;;;;;;12.35;11.15;;;;;;;22.59;100.00;99719.09;5092850;28;20525;-53
2022/07/04 03:01:52;;;;;;;13.00;11.77;;;;;;;22.85;100.00;99715.28;5092819;28;20051;-50
2022/07/04 03:04:19;;;;;;;12.80;11.50;;;;;;;22.89;100.00;99709.59;5092574;28;20052;-52
2022/07/04 03:06:45;;;;;;;12.10;10.80;;;;;;;23.06;100.00;99702.84;5092935;28;20048;-52
2022/07/04 03:09:11;;;;;;;15.38;11.32;;;;;;;23.17;100.00;99696.97;5092649;28;20188;-50
2022/07/04 03:11:38;;;;;;;11.60;10.60;;;;;;;22.99;100.00;99686.22;5092657;28;20055;-51
2022/07/04 03:14:04;;;;;;;10.77;9.98;;;;;;;22.89;100.00;99699.22;5092646;28;20059;-52
2022/07/04 03:16:30;;;;;;;12.52;11.50;;;;;;;22.69;100.00;99704.88;5092904;28;20565;-52
2022/07/04 03:18:57;;;;;;;12.95;11.75;;;;;;;22.48;100.00;99717.31;5092525;28;20064;-51
2022/07/04 03:21:24;;;;;;;11.40;10.50;;;;;;;22.31;100.00;99715.69;5092827;28;20097;-50
2022/07/04 03:23:57;;;;;;;12.77;11.68;;;;;;;22.49;100.00;99713.31;5092374;28;20044;-49
2022/07/04 03:26:24;;;;;;;11.93;10.82;;;;;;;22.84;100.00;99713.72;5092553;28;20055;-53
2022/07/04 03:28:50;;;;;;;12.88;11.20;;;;;;;23.19;100.00;99711.31;5092248;28;20048;-49
2022/07/04 03:31:16;;;;;;;12.32;11.32;;;;;;;23.56;100.00;99689.56;5092258;28;20044;-48
2022/07/04 03:33:43;;;;;;;12.77;11.57;;;;;;;23.81;100.00;99664.50;5092387;28;20048;-48
2022/07/04 03:36:09;;;;;;;12.60;11.43;;;;;;;24.37;100.00;99608.03;5092024;28;20052;-48
2022/07/04 03:38:36;;;;;;;12.13;11.07;;;;;;;24.60;100.00;99548.06;5092304;28;20143;-52
2022/07/04 03:41:02;;;;;;;11.10;10.10;;;;;;;25.02;100.00;99474.09;5092196;28;20052;-48
2022/07/04 03:43:29;;;;;;;10.23;9.35;;;;;;;25.09;100.00;99333.59;5092462;28;20048;-51
2022/07/04 03:45:55;;;;;;;10.35;9.50;;;;;;;25.62;100.00;99254.91;5092036;28;20052;-49
2022/07/04 03:48:21;;;;;;;11.85;10.65;;;;;;;26.02;100.00;99136.06;5092152;28;20059;-48
2022/07/04 03:50:48;;;;;;;11.55;10.25;;;;;;;26.27;100.00;99071.06;5091878;28;20131;-49
2022/07/04 03:53:14;;;;;;;10.77;9.65;;;;;;;26.64;100.00;98941.56;5092240;28;20507;-49
2022/07/04 03:55:42;;;;;;;10.60;9.55;;;;;;;26.51;100.00;98963.53;5091694;28;20055;-52
2022/07/04 03:58:08;;;;;;;10.55;9.70;;;;;;;25.41;100.00;99070.59;5091666;28;20056;-49
2022/07/04 04:00:35;;;;;;;10.60;9.52;;;;;;;26.61;100.00;98934.09;5091776;28;20421;-50
2022/07/04 04:03:01;;;;;;;10.15;9.35;;;;;;;27.25;100.00;98783.63;5091562;28;20051;-50
2022/07/04 04:05:27;;;;;;;10.63;9.57;;;;;;;27.20;100.00;98638.00;5091900;28;20418;-49
2022/07/04 04:07:57;;;;;;;10.00;9.00;;;;;;;27.29;100.00;98662.41;5091927;28;20055;-50
2022/07/04 04:10:24;;;;;;;10.30;9.50;;;;;;;27.54;100.00;98605.41;5091642;28;20205;-50
2022/07/04 04:12:51;;;;;;;10.40;9.40;;;;;;;27.79;100.00;98511.00;5091858;28;20109;-51
2022/07/04 04:15:18;;;;;;;11.18;9.65;;;;;;;28.21;100.00;98443.94;5091847;28;20080;-53
2022/07/04 04:17:44;;;;;;;10.20;9.20;;;;;;;28.54;100.00;98389.81;5091759;28;20062;-50
2022/07/04 04:20:10;;;;;;;9.75;8.95;;;;;;;28.03;100.00;98400.81;5091810;28;20144;-54
2022/07/04 04:22:37;;;;;;;10.18;9.35;;;;;;;28.19;100.00;98474.66;5091643;28;20135;-51
2022/07/04 04:25:05;;;;;;;10.43;9.43;;;;;;;27.93;100.00;98461.44;5091430;28;20558;-51
2022/07/04 04:27:31;;;;;;;9.35;8.30;;;;;;;28.47;100.00;98399.53;5091488;28;20048;-52
2022/07/04 04:29:58;;;;;;;9.88;8.88;;;;;;;29.00;100.00;98304.81;5091568;28;20068;-51
2022/07/04 04:32:24;;;;;;;9.63;8.65;;;;;;;28.91;100.00;98350.16;5091242;28;20062;-50
2022/07/04 04:34:50;;;;;;;9.05;8.25;;;;;;;28.73;100.00;98357.06;5091345;28;20056;-51
2022/07/04 04:37:17;;;;;;;9.75;8.85;;;;;;;29.38;100.00;98259.38;5091368;28;20669;-52
2022/07/04 04:39:43;;;;;;;9.57;8.55;;;;;;;29.87;100.00;98218.19;5091308;28;20134;-52
2022/07/04 04:42:09;;;;;;;8.93;7.95;;;;;;;28.58;100.00;98269.09;5090910;28;20048;-53
2022/07/04 04:44:36;;;;;;;9.20;8.27;;;;;;;29.88;100.00;98193.53;5090995;28;20087;-53
2022/07/04 04:47:03;;;;;;;8.55;7.75;;;;;;;30.21;100.00;98170.75;5091029;28;20047;-51
2022/07/04 04:49:29;;;;;;;8.25;7.53;;;;;;;29.81;100.00;98183.53;5090872;28;20087;-54
2022/07/04 04:51:56;;;;;;;8.60;7.68;;;;;;;29.98;100.00;98175.75;5091024;28;20058;-55
2022/07/04 04:54:22;;;;;;;12.55;7.70;;;;;;;30.65;100.00;98174.53;5090854;28;20075;-54
2022/07/04 04:56:48;;;;;;;8.65;7.10;;;;;;;30.89;100.00;98165.38;5090777;28;20136;-54
2022/07/04 04:59:14;;;;;;;8.40;7.68;;;;;;;30.60;100.00;98169.72;5090815;28;20054;-53
2022/07/04 05:01:41;;;;;;;8.52;7.82;;;;;;;30.29;100.00;98161.72;5090272;28;20052;-53
2022/07/04 05:04:08;;;;;;;8.23;7.15;;;;;;;29.80;100.00;98175.59;5090823;28;20404;-54
2022/07/04 05:06:34;;;;;;;8.68;7.78;;;;;;;30.48;100.00;98171.84;5090828;28;20048;-53
2022/07/04 05:09:00;;;;;;;8.63;7.65;;;;;;;30.83;100.00;98167.50;5090947;28;20087;-54
2022/07/04 05:11:27;;;;;;;8.57;7.78;;;;;;;30.77;100.00;98169.59;5090796;28;20058;-52
2022/07/04 05:13:53;;;;;;;9.25;8.35;;;;;;;31.06;100.00;98170.13;5090936;28;20529;-56
2022/07/04 05:16:19;;;;;;;9.40;7.97;;;;;;;31.20;100.00;98185.94;5090534;28;20060;-57
2022/07/04 05:18:46;;;;;;;10.27;8.32;;;;;;;31.09;100.00;98169.84;5090805;28;20439;-60
2022/07/04 05:21:12;;;;;;;10.50;8.63;;;;;;;31.03;100.00;98168.34;5090496;28;20849;-58
2022/07/04 05:23:39;;;;;;;11.07;9.43;;;;;;;31.55;100.00;98207.69;5090355;28;20055;-55
2022/07/04 05:26:05;;;;;;;17.88;9.98;;;;;;;31.58;100.00;98211.53;5090490;28;20055;-56
2022/07/04 05:28:31;;;;;;;21.05;9.23;;;;;;;31.74;100.00;98196.41;5090115;28;20056;-59
2022/07/04 05:30:57;;;;;;;13.15;9.13;;;;;;;31.85;100.00;98221.78;5090691;28;20075;-59
2022/07/04 05:33:24;;;;;;;15.60;10.05;;;;;;;31.72;100.00;98221.66;5090385;28;20048;-60
2022/07/04 05:35:50;;;;;;;14.20;9.15;;;;;;;31.73;100.00;98214.72;5090501;28;20130;-62
2022/07/04 05:38:18;;;;;;;16.73;9.45;;;;;;;31.53;100.00;98206.72;5090149;28;20083;-60
2022/07/04 05:40:44;;;;;;;10.38;8.77;;;;;;;31.17;100.00;98184.16;5090449;28;20058;-63
2022/07/04 05:43:11;;;;;;;10.07;9.07;;;;;;;30.78;100.00;98185.28;5090035;28;20139;-58
2022/07/04 05:45:38;;;;;;;9.05;7.97;;;;;;;30.83;100.00;98167.50;5090256;28;20052;-63
2022/07/04 05:48:04;;;;;;;11.98;9.23;;;;;;;30.90;100.00;98154.84;5089787;28;20105;-59
2022/07/04 05:50:31;;;;;;;12.55;8.40;;;;;;;31.03;100.00;98160.63;5090035;28;20079;-60
2022/07/04 05:52:57;;;;;;;14.93;8.77;;;;;;;31.24;100.00;98188.47;5089969;28;20139;-59
2022/07/04 05:55:24;;;;;;;14.25;9.85;;;;;;;31.01;100.00;98166.03;5089880;28;20075;-59
2022/07/04 05:57:50;;;;;;;10.90;8.35;;;;;;;31.20;100.00;98185.94;5089784;28;20146;-55
2022/07/04 06:00:17;;;;;;;12.15;9.50;;;;;;;31.30;100.00;98180.69;5089996;28;20079;-56
2022/07/04 06:02:43;;;;;;;13.98;9.95;;;;;;;31.34;100.00;98161.34;5089922;28;20396;-54
2022/07/04 06:05:09;;;;;;;11.88;9.95;;;;;;;31.43;100.00;98149.66;5089897;28;20048;-55
2022/07/04 06:07:35;;;;;;;14.38;8.82;;;;;;;31.76;100.00;98176.06;5090096;28;20381;-58
2022/07/04 06:10:02;;;;;;;11.27;8.88;;;;;;;32.24;100.00;98263.06;5089872;28;20048;-58
2022/07/04 06:12:29;;;;;;;8.93;7.30;;;;;;;32.25;100.00;98295.78;5089880;28;20074;-58
2022/07/04 06:14:55;;;;;;;11.68;7.45;;;;;;;32.36;100.00;98311.91;5093392;28;20125;-55
2022/07/04 06:17:21;;;;;;;9.93;7.78;;;;;;;32.19;100.00;98340.47;5093420;28;20101;-54
2022/07/04 06:19:47;;;;;;;8.85;7.72;;;;;;;31.98;100.00;98362.09;5093331;28;20188;-57
2022/07/04 06:22:14;;;;;;;9.75;7.53;;;;;;;32.66;100.00;98303.28;5093115;28;20048;-58
2022/07/04 06:24:40;;;;;;;14.10;7.88;;;;;;;32.89;100.00;98319.94;5092905;28;20143;-56
2022/07/04 06:27:06;;;;;;;12.02;7.53;;;;;;;33.14;100.00;98301.53;5093001;28;20048;-53
2022/07/04 06:29:33;;;;;;;8.27;6.80;;;;;;;33.79;100.00;98324.16;5092709;28;20162;-56
2022/07/04 06:32:00;;;;;;;9.15;7.57;;;;;;;33.62;100.00;98379.28;5092658;28;20055;-53
2022/07/04 06:37:11;;;;;;;7.57;6.60;;;;;;;34.42;100.00;98434.19;5092863;28;20047;-54
2022/07/04 06:39:37;;;;;;;10.80;6.53;;;;;;;34.77;100.00;98420.03;5092706;28;20087;-55
2022/07/04 06:42:04;;;;;;;10.63;6.55;;;;;;;35.06;100.00;98453.09;5092763;28;20124;-57
2022/07/04 06:44:30;;;;;;;11.90;6.47;;;;;;;34.77;100.00;98514.75;5092680;28;20090;-58
2022/07/04 06:46:57;;;;;;;7.22;6.03;;;;;;;34.67;100.00;98488.03;5092974;28;20153;-58
2022/07/04 06:49:23;;;;;;;9.68;5.80;;;;;;;34.79;100.00;98503.59;5092695;28;20150;-56
2022/07/04 06:51:49;;;;;;;10.68;5.95;;;;;;;34.82;100.00;98493.97;5092889;28;20430;-58
2022/07/04 06:54:16;;;;;;;9.05;5.90;;;;;;;34.84;100.00;98516.19;5092798;28;20447;-58
2022/07/04 06:56:42;;;;;;;11.63;6.38;;;;;;;35.30;100.00;98540.34;5092574;28;20047;-58
2022/07/04 06:59:08;;;;;;;12.55;6.22;;;;;;;35.18;100.00;98481.31;5092542;28;20079;-58
2022/07/04 07:01:35;;;;;;;8.95;5.65;;;;;;;35.19;100.00;98505.63;5092506;28;20083;-57
2022/07/04 07:04:02;;;;;;;9.90;5.45;;;;;;;35.33;100.00;98529.94;5092501;28;20052;-57
2022/07/04 07:06:28;;;;;;;10.38;5.85;;;;;;;35.73;100.00;98499.25;5092706;28;20105;-58
2022/07/04 07:08:54;;;;;;;13.55;6.43;;;;;;;36.17;100.00;98513.72;5092348;28;20091;-58
2022/07/04 07:11:21;;;;;;;8.10;5.90;;;;;;;35.64;100.00;98564.53;5092536;28;20403;-55
2022/07/04 07:13:49;;;;;;;12.07;5.65;;;;;;;35.44;100.00;98549.63;5092150;28;20048;-58
2022/07/04 07:16:16;;;;;;;7.72;5.68;;;;;;;35.99;100.00;98643.81;5092340;28;20052;-58
2022/07/04 07:18:44;;;;;;;9.00;5.70;;;;;;;35.07;100.00;98545.00;5092348;28;20621;-57
2022/07/04 07:21:11;;;;;;;7.80;4.68;;;;;;;34.54;100.00;98616.13;5092232;28;20154;-58
2022/07/04 07:23:39;;;;;;;9.13;4.95;;;;;;;34.92;100.00;98585.38;5091740;28;20044;-57
2022/07/04 07:26:06;;;;;;;6.40;5.25;;;;;;;34.85;100.00;98531.94;5092055;28;20431;-59
2022/07/04 07:28:32;;;;;;;6.82;4.88;;;;;;;34.75;100.00;98567.84;5092061;28;20506;-54
2022/07/04 07:30:59;;;;;;;9.10;5.10;;;;;;;35.11;100.00;98566.13;5092063;28;20130;-60
2022/07/04 07:33:25;;;;;;;5.90;4.78;;;;;;;34.94;100.00;98557.13;5092333;28;20052;-58
2022/07/04 07:35:51;;;;;;;11.27;5.25;;;;;;;34.98;100.00;98568.97;5092062;28;20568;-57
2022/07/04 07:38:18;;;;;;;4.68;4.28;;;;;;;34.01;100.00;98650.81;5092087;28;20084;-55
2022/07/04 07:40:45;;;;;;;6.68;3.90;;;;;;;34.24;100.00;98653.31;5091822;28;20079;-58
2022/07/04 07:43:11;;;;;;;6.38;4.25;;;;;;;34.18;100.00;98668.38;5091751;28;20109;-57
2022/07/04 07:45:37;;;;;;;7.78;4.60;;;;;;;33.70;100.00;98607.53;5091741;28;20052;-58
2022/07/04 07:48:04;;;;;;;6.07;4.55;;;;;;;33.92;100.00;98631.25;5091677;28;20138;-60
2022/07/04 07:50:30;;;;;;;8.98;4.40;;;;;;;34.11;100.00;98642.66;5091786;28;20139;-58
2022/07/04 07:52:56;;;;;;;6.15;4.70;;;;;;;33.68;100.00;98638.56;5092040;28;20048;-61
2022/07/04 07:55:23;;;;;;;5.18;4.65;;;;;;;34.01;100.00;98621.59;5092066;28;20467;-62
2022/07/04 07:57:49;;;;;;;9.48;5.13;;;;;;;34.53;100.00;98606.06;5092066;28;20052;-62
2022/07/04 08:00:16;;;;;;;11.40;4.47;;;;;;;34.95;100.00;98658.34;5091873;28;20404;-61
2022/07/04 08:05:27;;;;;;;4.80;4.38;;;;;;;33.96;100.00;98665.84;5091803;28;20066;-62
2022/07/04 08:07:53;;;;;;;6.72;4.68;;;;;;;34.26;100.00;98684.84;5091384;28;20608;-62
2022/07/04 08:10:20;;;;;;;5.22;4.10;;;;;;;33.67;100.00;98673.22;5091499;28;20062;-62
2022/07/04 08:12:47;;;;;;;5.22;3.90;;;;;;;34.46;100.00;98686.31;5091438;28;20136;-59
2022/07/04 08:15:13;;;;;;;7.20;5.30;;;;;;;34.23;100.00;98598.50;5091478;28;20492;-60
2022/07/04 08:17:39;;;;;;;7.65;5.22;;;;;;;35.79;100.00;98616.78;5091278;28;20074;-61
2022/07/04 08:20:07;;;;;;;6.32;5.25;;;;;;;36.53;100.00;98623.66;5091386;28;20181;-63
2022/07/04 08:22:33;;;;;;;7.90;5.13;;;;;;;37.00;100.00;98637.75;5091584;28;20048;-62
2022/07/04 08:25:00;;;;;;;11.18;5.25;;;;;;;36.90;100.00;98631.00;5091429;28;20076;-61
2022/07/04 08:27:27;;;;;;;10.23;5.65;;;;;;;37.43;100.00;98642.00;5091491;28;20048;-58
2022/07/04 08:29:54;;;;;;;11.05;5.28;;;;;;;36.94;100.00;98600.72;5091223;28;20074;-60
2022/07/04 08:32:20;;;;;;;7.22;5.00;;;;;;;36.87;100.00;98657.81;5091394;28;20048;-59
2022/07/04 08:34:47;;;;;;;9.70;5.40;;;;;;;37.30;100.00;98633.56;5091013;28;20055;-58
2022/07/04 08:37:15;;;;;;;9.05;5.50;;;;;;;37.01;100.00;98596.41;5089985;28;20059;-59
2022/07/04 08:39:41;;;;;;;16.42;5.43;;;;;;;36.99;100.00;98613.38;5090998;28;20388;-61
2022/07/04 08:42:13;;;;;;;10.07;5.25;;;;;;;36.92;100.00;98623.41;5090874;28;20083;-58
2022/07/04 08:44:41;;;;;;;6.65;5.85;;;;;;;36.43;100.00;98629.06;5091024;28;20052;-58
2022/07/04 08:47:10;;;;;;;7.82;5.20;;;;;;;35.89;100.00;98580.03;5090812;28;20182;-54
2022/07/04 08:49:39;;;;;;;5.55;5.10;;;;;;;35.54;100.00;98659.06;5090786;28;20056;-57
2022/07/04 08:52:06;;;;;;;5.07;4.60;;;;;;;35.17;100.00;98610.84;5091027;28;20103;-59
2022/07/04 09:00:04;;;;;;;6.95;4.40;;;;;;;35.72;100.00;98650.91;5090821;28;20139;-57
2022/07/04 09:02:33;;;;;;;5.38;4.65;;;;;;;36.37;100.00;98652.03;5090524;28;20095;-59
2022/07/04 09:05:00;;;;;;;7.75;4.70;;;;;;;36.46;100.00;98659.34;5090310;28;20502;-60
2022/07/04 09:07:28;;;;;;;5.60;4.32;;;;;;;34.85;100.00;98705.63;5090466;28;20048;-54
2022/07/04 09:09:54;;;;;;;6.18;4.80;;;;;;;34.03;100.00;98616.91;5090425;28;20473;-56
2022/07/04 09:12:21;;;;;;;5.80;5.00;;;;;;;34.96;100.00;98622.88;5090443;28;20082;-55
2022/07/04 09:14:47;;;;;;;5.35;4.60;;;;;;;35.65;100.00;98657.28;5090514;28;20131;-59
2022/07/04 09:17:13;;;;;;;6.47;4.63;;;;;;;34.84;100.00;98616.59;5090478;28;20391;-58
2022/07/04 09:19:40;;;;;;;7.15;5.20;;;;;;;33.88;100.00;98563.31;5090198;28;20132;-58
2022/07/04 09:22:10;;;;;;;10.38;5.50;;;;;;;34.71;100.00;98582.41;5090416;28;20101;-57
2022/07/04 09:24:47;;;;;;;5.80;4.78;;;;;;;35.16;100.00;98641.41;5090483;28;20048;-55
2022/07/04 09:27:30;;;;;;;5.43;4.20;;;;;;;35.53;100.00;98602.59;5090445;28;20054;-57
2022/07/04 09:29:56;;;;;;;4.72;4.32;;;;;;;35.63;100.00;98655.00;5090331;28;20063;-58
2022/07/04 09:32:35;;;;;;;7.30;4.85;;;;;;;35.93;100.00;98673.78;5090326;28;20098;-58
2022/07/04 09:35:02;;;;;;;9.90;5.47;;;;;;;35.41;100.00;98653.34;5090232;28;20052;-57
2022/07/04 09:37:35;;;;;;;5.75;4.85;;;;;;;34.08;100.00;98592.53;5090129;28;20610;-59
2022/07/04 09:40:03;;;;;;;8.95;5.25;;;;;;;32.80;100.00;98488.59;5090377;28;20044;-58
2022/07/04 09:42:35;;;;;;;8.40;5.13;;;;;;;33.84;100.00;98466.22;5090093;28;20622;-58
2022/07/04 09:45:05;;;;;;;6.63;5.28;;;;;;;33.09;100.00;98501.16;5089980;28;20196;-58
2022/07/04 09:47:32;;;;;;;6.47;5.43;;;;;;;32.98;100.00;98498.44;5089795;28;20044;-57
2022/07/04 09:49:59;;;;;;;6.38;5.43;;;;;;;33.68;100.00;98533.41;5089951;28;20062;-58
2022/07/04 09:52:27;;;;;;;9.00;5.35;;;;;;;34.14;100.00;98551.31;5090097;28;20048;-57
2022/07/04 09:54:58;;;;;;;5.07;4.57;;;;;;;35.03;100.00;98613.69;5089864;28;20503;-57
2022/07/04 09:57:24;;;;;;;8.15;6.50;;;;;;;35.23;100.00;98577.31;5090123;28;20095;-58
2022/07/04 09:59:50;;;;;;;5.90;4.95;;;;;;;35.46;100.00;98665.97;5089911;28;20138;-59
2022/07/04 10:02:16;;;;;;;9.95;5.20;;;;;;;33.88;100.00;98559.72;5089979;28;20465;-60
2022/07/04 10:04:44;;;;;;;6.85;5.10;;;;;;;35.72;100.00;98556.81;5089659;28;20138;-57
2022/07/04 10:07:11;;;;;;;7.85;4.88;;;;;;;35.58;100.00;98570.34;5089624;28;20091;-57
2022/07/04 10:09:38;;;;;;;7.43;4.80;;;;;;;35.57;100.00;98595.25;5089452;28;20048;-57
2022/07/04 10:12:05;;;;;;;8.85;5.10;;;;;;;35.89;100.00;98571.47;5089662;28;20059;-56
2022/07/04 10:14:31;;;;;;;5.28;4.30;;;;;;;35.90;100.00;98560.81;5089732;28;20491;-58
2022/07/04 10:16:57;;;;;;;5.05;4.65;;;;;;;36.20;100.00;98566.06;5089638;28;20532;-58
2022/07/04 10:19:24;;;;;;;8.80;4.53;;;;;;;35.95;100.00;98569.22;5089562;28;20406;-58
2022/07/04 10:21:51;;;;;;;6.72;4.90;;;;;;;35.92;100.00;98598.84;5089535;28;20418;-56
2022/07/04 10:24:17;;;;;;;8.70;4.70;;;;;;;35.37;100.00;98584.50;5089794;28;20498;-55
2022/07/04 10:26:44;;;;;;;7.55;4.65;;;;;;;35.49;100.00;98590.72;5089470;28;20143;-56
2022/07/04 10:29:12;;;;;;;5.88;4.22;;;;;;;34.44;100.00;98578.75;5089471;28;20055;-57
2022/07/04 10:31:39;;;;;;;5.50;4.70;;;;;;;34.15;100.00;98552.84;5089267;28;20052;-56
2022/07/04 10:34:05;;;;;;;5.32;4.50;;;;;;;34.48;100.00;98553.56;5089493;28;20048;-55
2022/07/04 10:36:31;;;;;;;7.63;4.32;;;;;;;34.16;100.00;98570.69;5089212;28;20051;-58
2022/07/04 10:38:59;;;;;;;7.00;4.18;;;;;;;32.35;100.00;98574.13;5089130;28;20139;-58
2022/07/04 10:41:27;;;;;;;8.65;4.35;;;;;;;32.33;100.00;98542.72;5089191;28;20091;-59
2022/07/04 10:44:05;;;;;;;7.65;4.38;;;;;;;33.07;100.00;98523.63;5089179;28;20507;-59
2022/07/04 10:46:56;;;;;;;4.60;3.80;;;;;;;32.80;100.00;98548.19;5089504;28;20131;-57
2022/07/04 10:49:25;;;;;;;6.10;4.10;;;;;;;32.32;100.00;98556.13;5089000;28;20101;-57
2022/07/04 10:51:53;;;;;;;7.80;3.95;;;;;;;33.12;100.00;98531.31;5089634;28;20450;-56
2022/07/04 10:54:21;;;;;;;5.45;3.80;;;;;;;33.57;100.00;98567.66;5088968;28;20048;-58
2022/07/04 10:56:49;;;;;;;5.07;4.68;;;;;;;33.38;100.00;98524.25;5089120;28;20177;-55
2022/07/04 10:59:22;;;;;;;4.40;4.00;;;;;;;32.39;100.00;98519.94;5090033;28;20104;-58
2022/07/04 11:01:51;;;;;;;7.00;4.53;;;;;;;32.81;100.00;98507.16;5092566;28;20211;-57
2022/07/04 11:04:52;;;;;;;8.20;5.03;;;;;;;32.40;100.00;98476.13;5092359;28;20314;-57
2022/07/04 11:07:19;;;;;;;5.05;4.53;;;;;;;32.54;100.00;98455.84;5086265;28;20135;-53
2022/07/04 11:09:47;;;;;;;5.70;4.10;;;;;;;32.49;100.00;98464.41;5092412;28;20496;-57
2022/07/04 11:12:14;;;;;;;4.72;4.30;;;;;;;31.83;100.00;98484.34;5092191;28;20055;-56
2022/07/04 11:14:43;;;;;;;5.53;4.22;;;;;;;31.67;100.00;98454.84;5092586;28;20048;-54
2022/07/04 11:17:10;;;;;;;4.32;4.00;;;;;;;31.75;100.00;98435.97;5092386;28;20052;-58
2022/07/04 11:19:36;;;;;;;7.32;4.45;;;;;;;31.98;100.00;98415.94;5092312;28;20052;-58
2022/07/04 11:22:04;;;;;;;5.05;4.65;;;;;;;31.20;100.00;98445.63;5092342;28;20510;-53
2022/07/04 11:24:31;;;;;;;7.00;4.75;;;;;;;31.77;100.00;98387.28;5092105;28;20193;-55
2022/07/04 11:26:58;;;;;;;8.13;4.72;;;;;;;31.84;100.00;98438.47;5092348;28;20513;-55
2022/07/04 11:29:25;;;;;;;6.45;4.85;;;;;;;31.62;100.00;98388.44;5092111;28;20517;-55
2022/07/04 11:31:53;;;;;;;11.43;5.07;;;;;;;31.87;100.00;98358.09;5092134;28;20134;-56